Time;durP1;ratioP1;P1;durP2;ratioP2;P2;SDS_P1;SDS_P2;PMS_P1;PMS_P2;Temp;Humidity;BMP_temperature;BMP_pressure;BME280_temperature;BME280_humidity;BME280_pressure;Samples;Min_cycle;Max_cycle;Signal;HPM_P1;HPM_P2
2022/02/09 00:04:17;;;;;;;4.32;1.77;;;;;;;0.18;52.93;96967.81;5097076;28;20055;-62
2022/02/09 00:06:52;;;;;;;3.47;1.77;;;;;;;0.14;53.49;96980.63;5096979;28;20024;-62
2022/02/09 00:09:18;;;;;;;2.58;1.75;;;;;;;0.12;53.88;96989.22;5096882;28;20036;-62
2022/02/09 00:12:01;;;;;;;4.88;2.08;;;;;;;0.15;53.61;96988.38;5096836;28;20476;-62
2022/02/09 00:20:14;;;;;;;2.78;1.50;;;;;;;0.18;54.03;96987.56;5096448;28;20052;-62
2022/02/09 01:11:28;;;;;;;3.30;2.35;;;;;;;-1.53;59.31;96974.13;5039981;28;20036;-63
2022/02/09 01:57:14;;;;;;;3.40;1.70;;;;;;;-2.16;62.53;96961.91;5095065;28;20043;-63
2022/02/09 01:59:42;;;;;;;2.55;1.48;;;;;;;-2.14;62.41;96952.53;5094670;28;20366;-62
2022/02/09 02:02:08;;;;;;;4.93;2.55;;;;;;;-2.10;62.39;96962.03;5094721;28;20051;-63
2022/02/09 02:04:35;;;;;;;4.75;2.55;;;;;;;-2.13;62.69;96968.78;5094654;28;20027;-63
2022/02/09 02:07:05;;;;;;;9.40;2.25;;;;;;;-2.13;62.96;96956.84;5094574;28;20030;-63
2022/02/09 02:09:34;;;;;;;8.13;4.50;;;;;;;-2.17;63.00;96965.28;5094449;28;20501;-63
2022/02/09 02:12:11;;;;;;;5.20;2.33;;;;;;;-2.18;62.72;96961.00;5094452;28;20036;-63
2022/02/09 02:14:45;;;;;;;3.47;1.58;;;;;;;-2.15;62.98;96955.94;5094569;28;20031;-63
2022/02/09 02:19:43;;;;;;;5.32;2.58;;;;;;;-1.95;61.85;96961.44;5094121;28;20406;-63
2022/02/09 03:10:34;;;;;;;4.03;2.10;;;;;;;-2.01;62.60;96956.19;5093535;28;20035;-62
2022/02/09 03:13:13;;;;;;;4.13;2.22;;;;;;;-1.91;63.22;96960.66;5093246;28;20381;-62
2022/02/09 03:15:51;;;;;;;5.93;1.70;;;;;;;-1.66;62.23;96952.50;5093449;28;20375;-62
2022/02/09 03:21:05;;;;;;;6.75;2.15;;;;;;;-1.45;61.40;96934.03;5093294;28;20040;-62
2022/02/09 03:50:48;;;;;;;4.50;1.95;;;;;;;-2.13;61.10;96936.31;5093060;28;20395;-63
2022/02/09 03:58:15;;;;;;;2.75;1.27;;;;;;;-2.26;62.48;96939.50;5092996;28;20047;-63
2022/02/09 04:00:44;;;;;;;4.35;1.63;;;;;;;-2.32;62.12;96941.09;5092789;28;20492;-63
2022/02/09 04:03:16;;;;;;;3.40;2.08;;;;;;;-2.45;62.82;96942.56;5092870;28;20032;-63
2022/02/09 04:05:44;;;;;;;2.78;1.60;;;;;;;-2.43;63.69;96929.78;5093009;28;20028;-62
2022/02/09 04:08:14;;;;;;;5.45;1.85;;;;;;;-2.59;63.53;96939.69;5092910;28;20035;-63
2022/02/09 04:10:45;;;;;;;5.63;1.97;;;;;;;-2.67;63.97;96925.88;5092898;28;20489;-62
2022/02/09 04:13:21;;;;;;;4.15;1.50;;;;;;;-2.62;64.48;96923.41;5092853;28;20111;-63
2022/02/09 04:16:04;;;;;;;3.67;1.77;;;;;;;-2.86;64.20;96925.47;5092801;28;20532;-63
2022/02/09 04:37:25;;;;;;;1.95;1.13;;;;;;;-3.03;65.37;96922.56;5092599;28;20039;-62
2022/02/09 04:39:59;;;;;;;2.45;1.20;;;;;;;-3.05;65.55;96921.66;5095621;28;20068;-63
2022/02/09 04:42:41;;;;;;;2.85;1.23;;;;;;;-2.99;65.64;96926.03;5096460;28;20024;-62
2022/02/09 04:50:14;;;;;;;4.47;2.17;;;;;;;-3.15;66.49;96943.66;5096075;28;20028;-63
2022/02/09 04:58:09;;;;;;;3.55;2.60;;;;;;;-3.10;66.18;96939.47;5096014;28;20028;-63
2022/02/09 05:30:11;;;;;;;3.85;2.53;;;;;;;-3.65;69.22;96955.25;5095440;28;20053;-63
2022/02/09 05:32:36;;;;;;;6.68;1.83;;;;;;;-3.59;69.32;96952.88;5095413;28;20024;-62
2022/02/09 05:35:02;;;;;;;4.72;1.60;;;;;;;-3.47;68.92;96966.78;5095132;28;20046;-63
2022/02/09 05:37:28;;;;;;;5.72;2.08;;;;;;;-3.50;69.14;96965.00;5095146;28;20392;-62
2022/02/09 05:39:54;;;;;;;6.22;2.00;;;;;;;-3.58;70.12;96992.97;5095082;28;20067;-63
2022/02/09 05:42:19;;;;;;;8.68;2.08;;;;;;;-3.42;69.72;96970.31;5095114;28;20382;-63
2022/02/09 05:44:45;;;;;;;8.88;4.68;;;;;;;-3.47;70.29;96984.69;5095158;28;20021;-63
2022/02/09 05:50:08;;;;;;;2.88;1.52;;;;;;;-3.19;69.63;96972.56;5094700;28;20025;-63
2022/02/09 05:58:15;;;;;;;5.47;2.13;;;;;;;-2.93;68.84;96998.75;5053147;28;20040;-62
2022/02/09 06:00:47;;;;;;;6.07;2.17;;;;;;;-2.88;68.55;96998.00;5094600;28;20036;-62
2022/02/09 06:03:13;;;;;;;4.20;2.10;;;;;;;-2.40;68.24;97009.28;5094799;28;20032;-63
2022/02/09 06:05:38;;;;;;;8.00;1.58;;;;;;;-0.92;63.91;96996.50;5094631;28;20054;-63
2022/02/09 06:08:05;;;;;;;3.85;1.38;;;;;;;0.78;58.56;97002.69;5094554;28;20044;-63
2022/02/09 06:10:33;;;;;;;2.20;1.23;;;;;;;2.41;53.51;97006.97;5094297;28;20073;-63
2022/02/09 06:21:00;;;;;;;8.00;1.77;;;;;;;6.91;42.51;96996.13;5094407;28;19969;-63
2022/02/09 06:23:26;;;;;;;4.32;2.40;;;;;;;8.14;40.22;97004.31;5094167;28;20381;-63
2022/02/09 06:25:52;;;;;;;7.68;2.63;;;;;;;8.37;38.80;96983.88;5094409;28;20382;-63
2022/02/09 06:28:17;;;;;;;3.92;2.13;;;;;;;8.96;37.45;96987.75;5094210;28;20024;-63
2022/02/09 06:30:42;;;;;;;6.63;2.47;;;;;;;9.79;36.88;97011.78;5094074;28;20537;-62
2022/02/09 06:33:08;;;;;;;5.97;2.20;;;;;;;10.12;34.95;96993.44;5094179;28;20111;-63
2022/02/09 06:35:34;;;;;;;5.82;2.30;;;;;;;10.96;33.81;96990.91;5093966;28;20095;-63
2022/02/09 06:38:02;;;;;;;6.15;2.08;;;;;;;11.75;32.67;96992.63;5093887;28;20111;-62
2022/02/09 06:40:28;;;;;;;2.47;1.60;;;;;;;11.70;32.58;96998.94;5093788;28;20028;-63
2022/02/09 06:42:54;;;;;;;4.00;2.20;;;;;;;11.11;33.23;96992.16;5093961;28;20116;-63
2022/02/09 06:45:24;;;;;;;5.47;2.00;;;;;;;11.92;32.75;96996.41;5093975;28;20024;-63
2022/02/09 06:47:50;;;;;;;5.50;2.25;;;;;;;11.36;32.95;96991.38;5093841;28;20028;-62
2022/02/09 06:52:59;;;;;;;2.72;1.77;;;;;;;11.73;34.64;96996.22;5076617;28;20474;-63
2022/02/09 06:55:24;;;;;;;3.55;1.83;;;;;;;11.28;35.33;96996.00;5093813;28;20063;-62
2022/02/09 07:00:18;;;;;;;3.42;1.80;;;;;;;11.52;34.97;96996.06;5093531;28;20070;-62
2022/02/09 07:02:44;;;;;;;4.22;1.90;;;;;;;10.51;37.54;96986.22;5092993;28;20469;-63
2022/02/09 07:05:11;;;;;;;5.40;1.92;;;;;;;10.41;37.64;96991.69;5093507;28;20090;-63
2022/02/09 07:07:37;;;;;;;3.63;2.00;;;;;;;10.44;37.37;96986.38;5093627;28;20137;-62
2022/02/09 07:10:04;;;;;;;3.00;1.75;;;;;;;10.06;38.36;96994.44;5093727;28;20516;-62
2022/02/09 07:12:29;;;;;;;3.05;1.52;;;;;;;9.95;38.51;96999.13;5093486;28;20099;-62
2022/02/09 07:14:55;;;;;;;4.82;1.90;;;;;;;9.13;41.17;96997.78;5093561;28;20063;-63
2022/02/09 07:17:21;;;;;;;5.60;2.22;;;;;;;8.55;42.62;96996.50;5093105;28;20051;-64
2022/02/09 07:22:40;;;;;;;3.67;1.60;;;;;;;8.09;44.16;96999.19;5069803;28;20119;-63
2022/02/09 07:25:20;;;;;;;4.10;1.92;;;;;;;8.29;43.77;97023.13;5093279;28;20012;-63
2022/02/09 07:30:11;;;;;;;3.38;1.70;;;;;;;9.31;42.37;97027.81;5093232;28;20055;-63
2022/02/09 07:32:37;;;;;;;4.32;1.65;;;;;;;9.86;41.39;97029.00;5093146;28;20062;-63
2022/02/09 07:35:03;;;;;;;2.70;1.60;;;;;;;10.43;39.72;97042.22;5093346;28;20077;-63
2022/02/09 07:37:28;;;;;;;3.65;1.70;;;;;;;10.07;40.04;97038.00;5093302;28;20028;-63
2022/02/09 07:39:54;;;;;;;4.65;2.05;;;;;;;9.34;41.84;97040.75;5092959;28;20046;-63
2022/02/09 07:42:25;;;;;;;2.30;1.75;;;;;;;9.08;42.19;97042.25;5093079;28;20028;-63
2022/02/09 07:45:06;;;;;;;3.28;2.00;;;;;;;8.41;44.11;97038.53;5093143;28;20035;-63
2022/02/09 07:47:59;;;;;;;1.73;1.55;;;;;;;8.43;44.49;97056.75;5093133;28;20500;-63
2022/02/09 07:52:55;;;;;;;4.82;1.98;;;;;;;7.39;46.47;97059.53;5093054;28;20032;-63
2022/02/09 07:55:21;;;;;;;2.30;1.55;;;;;;;7.29;47.37;97051.88;5092876;28;20088;-63
2022/02/09 07:57:46;;;;;;;3.20;1.60;;;;;;;8.14;46.29;97059.06;5092938;28;20065;-63
2022/02/09 08:00:13;;;;;;;3.17;1.52;;;;;;;9.01;43.73;97048.53;5092735;28;20424;-63
2022/02/09 08:02:40;;;;;;;1.55;1.30;;;;;;;10.03;42.31;97056.41;5092893;28;20028;-63
2022/02/09 08:05:05;;;;;;;2.25;1.48;;;;;;;10.61;40.40;97060.91;5092771;28;20385;-63
2022/02/09 08:07:31;;;;;;;1.42;1.33;;;;;;;11.43;38.92;97057.47;5092946;28;20016;-63
2022/02/09 08:09:59;;;;;;;1.63;1.30;;;;;;;12.64;37.99;97052.38;5092815;28;20441;-63
2022/02/09 08:24:06;;;;;;;1.63;1.30;;;;;;;13.14;35.06;97075.88;5096615;28;20103;-63
2022/02/09 08:29:19;;;;;;;2.33;1.80;;;;;;;11.07;38.47;97069.09;5054282;28;20037;-63
2022/02/09 08:34:24;;;;;;;2.45;1.50;;;;;;;10.47;40.50;97100.53;5082378;28;20028;-63
2022/02/09 08:36:52;;;;;;;3.60;1.60;;;;;;;10.00;41.96;97083.50;5096447;28;20504;-62
2022/02/09 08:39:18;;;;;;;3.70;1.25;;;;;;;9.80;42.63;97097.09;5096182;28;20035;-62
2022/02/09 08:41:44;;;;;;;3.70;1.20;;;;;;;9.26;43.07;97081.00;5096188;28;20073;-62
2022/02/09 08:44:09;;;;;;;2.28;1.80;;;;;;;9.18;44.83;97091.66;5096173;28;20028;-62
2022/02/09 08:46:35;;;;;;;2.88;1.55;;;;;;;8.56;45.09;97099.09;5096216;28;20063;-62
2022/02/09 08:49:00;;;;;;;2.20;1.08;;;;;;;7.86;46.57;97085.63;5096134;28;20055;-62
2022/02/09 08:51:27;;;;;;;2.50;1.80;;;;;;;7.63;46.94;97107.72;5096052;28;20027;-62
2022/02/09 08:53:54;;;;;;;3.00;1.40;;;;;;;7.41;47.87;97126.28;5096029;28;20450;-62
2022/02/09 08:56:20;;;;;;;5.15;1.40;;;;;;;7.14;49.12;97125.00;5095925;28;20067;-62
2022/02/09 08:58:46;;;;;;;3.15;1.70;;;;;;;7.17;49.67;97127.56;5077734;28;20043;-62
2022/02/09 09:01:23;;;;;;;2.13;1.60;;;;;;;7.40;49.79;97129.78;5095852;28;20410;-62
2022/02/09 09:03:52;;;;;;;2.45;1.45;;;;;;;7.35;49.54;97130.75;5096027;28;20098;-63
2022/02/09 09:06:23;;;;;;;1.35;1.23;;;;;;;7.25;49.80;97138.69;5095775;28;20489;-62
2022/02/09 10:34:21;;;;;;;5.05;1.52;;;;;;;7.44;49.35;97193.94;5094296;28;20035;-62
2022/02/09 10:37:01;;;;;;;8.75;3.22;;;;;;;7.49;49.86;97200.84;5093190;28;20449;-62
2022/02/09 10:40:04;;;;;;;4.00;2.03;;;;;;;7.48;49.12;97199.09;5093932;28;20466;-62
2022/02/09 10:42:45;;;;;;;4.35;2.50;;;;;;;7.61;49.10;97198.03;5093930;28;20516;-62
2022/02/09 10:45:47;;;;;;;8.48;4.53;;;;;;;7.59;49.34;97185.03;5093949;28;20028;-62
2022/02/09 10:48:35;;;;;;;6.68;3.25;;;;;;;7.72;49.28;97187.44;5093986;28;20455;-62
2022/02/09 10:51:38;;;;;;;5.32;2.90;;;;;;;7.81;49.24;97179.50;5093880;28;20539;-62
2022/02/09 10:54:06;;;;;;;11.25;5.57;;;;;;;7.82;48.98;97185.53;5093702;28;20028;-62
2022/02/09 10:56:33;;;;;;;2.50;1.45;;;;;;;7.74;48.69;97182.22;5093901;28;20028;-62
2022/02/09 10:59:02;;;;;;;3.30;1.83;;;;;;;7.69;47.89;97185.75;5093590;28;20093;-62
2022/02/09 11:01:28;;;;;;;7.10;3.35;;;;;;;7.76;48.46;97186.50;5093705;28;20021;-62
2022/02/09 11:03:56;;;;;;;3.40;2.50;;;;;;;7.95;48.60;97191.44;5093636;28;20031;-62
2022/02/09 11:06:26;;;;;;;3.97;2.65;;;;;;;8.03;48.09;97178.25;5093495;28;20469;-63
2022/02/09 11:08:51;;;;;;;5.70;2.88;;;;;;;7.97;48.85;97194.84;5093556;28;20112;-62
2022/02/09 11:11:17;;;;;;;4.78;2.72;;;;;;;8.14;48.09;97205.00;5093559;28;20115;-62
2022/02/09 11:13:43;;;;;;;5.32;2.58;;;;;;;8.18;47.40;97191.00;5093556;28;20051;-62
2022/02/09 11:16:12;;;;;;;3.17;1.80;;;;;;;8.25;46.78;97198.72;5093394;28;20024;-62
2022/02/09 11:18:39;;;;;;;3.85;2.13;;;;;;;8.21;47.08;97195.31;5093156;28;20401;-62
2022/02/09 11:21:10;;;;;;;3.58;1.95;;;;;;;8.21;47.48;97197.91;5093277;28;20485;-62
2022/02/09 11:23:53;;;;;;;2.50;1.65;;;;;;;8.23;47.27;97188.31;5093383;28;20400;-62
2022/02/09 11:26:38;;;;;;;5.97;1.50;;;;;;;8.26;47.12;97190.88;5093424;28;20112;-62
2022/02/09 11:29:27;;;;;;;9.65;4.85;;;;;;;8.33;47.52;97196.81;5093502;28;20055;-62
2022/02/09 11:32:07;;;;;;;7.20;3.53;;;;;;;8.37;47.73;97190.66;5093440;28;20474;-62
2022/02/09 11:34:58;;;;;;;4.13;2.35;;;;;;;8.41;46.95;97191.47;5093258;28;20028;-62
2022/02/09 11:40:41;;;;;;;1.98;1.27;;;;;;;8.43;47.26;97193.16;5093110;28;20089;-62
2022/02/09 11:46:32;;;;;;;2.83;1.75;;;;;;;8.44;47.31;97196.63;5093231;28;20039;-62
2022/02/09 12:10:20;;;;;;;2.55;1.92;;;;;;;8.82;46.08;97199.44;5097269;28;20127;-62
2022/02/09 12:12:52;;;;;;;5.00;2.45;;;;;;;8.91;46.18;97194.00;5096984;28;20461;-62
2022/02/09 12:15:45;;;;;;;1.77;1.65;;;;;;;9.04;46.60;97198.97;5096832;28;20040;-62
2022/02/09 12:18:24;;;;;;;4.10;2.33;;;;;;;9.16;45.72;97197.84;5096507;28;20134;-62
2022/02/09 12:21:01;;;;;;;2.13;1.80;;;;;;;9.15;45.53;97198.75;5096624;28;20063;-62
2022/02/09 12:23:35;;;;;;;2.83;1.55;;;;;;;9.23;45.23;97197.69;5096794;28;20063;-62
2022/02/09 12:26:08;;;;;;;0.77;0.77;;;;;;;9.38;45.42;97195.59;5096636;28;20024;-62
2022/02/09 12:28:39;;;;;;;2.08;1.73;;;;;;;9.44;45.03;97192.84;5096486;28;20583;-62
2022/02/09 12:31:11;;;;;;;4.55;1.63;;;;;;;9.57;45.07;97197.81;5096435;28;20070;-62
2022/02/09 12:33:47;;;;;;;2.63;2.00;;;;;;;9.45;45.15;97193.72;5096432;28;20060;-62
2022/02/09 12:36:17;;;;;;;1.70;1.60;;;;;;;9.56;44.76;97196.06;5096422;28;20032;-62
2022/02/09 12:38:44;;;;;;;3.92;1.52;;;;;;;9.48;45.07;97204.94;5096380;28;20032;-63
2022/02/09 12:41:22;;;;;;;4.13;1.60;;;;;;;9.27;45.39;97206.28;5096209;28;20551;-62
2022/02/09 12:43:55;;;;;;;2.88;1.75;;;;;;;9.26;44.88;97201.97;5096213;28;20043;-62
2022/02/09 12:46:33;;;;;;;2.15;1.50;;;;;;;9.28;45.04;97205.41;5096259;28;20056;-62
2022/02/09 12:49:10;;;;;;;3.15;1.35;;;;;;;9.36;44.24;97202.59;5096274;28;20016;-62
2022/02/09 12:51:37;;;;;;;1.30;1.20;;;;;;;9.26;45.03;97203.69;5096110;28;20028;-62
2022/02/09 12:54:04;;;;;;;3.00;1.30;;;;;;;8.97;45.23;97212.13;5096009;28;20024;-62
2022/02/09 12:56:35;;;;;;;1.55;1.35;;;;;;;8.91;45.68;97207.03;5096108;28;20016;-62
2022/02/09 12:59:04;;;;;;;2.35;1.77;;;;;;;8.94;45.55;97200.91;5095048;28;20020;-62
2022/02/09 13:01:49;;;;;;;2.13;1.35;;;;;;;8.90;46.01;97194.91;5096011;28;20080;-62
2022/02/09 13:04:47;;;;;;;3.80;2.20;;;;;;;8.71;46.63;97200.50;5095837;28;20070;-62
2022/02/09 13:07:15;;;;;;;2.13;1.35;;;;;;;8.68;45.51;97189.25;5040359;28;20062;-62
2022/02/09 13:09:52;;;;;;;1.77;1.15;;;;;;;8.60;45.83;97192.00;5095691;28;20382;-62
2022/02/09 13:12:28;;;;;;;1.40;1.30;;;;;;;8.55;45.60;97194.69;5095759;28;20090;-62
2022/02/09 13:15:04;;;;;;;6.63;3.35;;;;;;;8.59;46.24;97195.50;5095779;28;20036;-62
2022/02/09 13:18:16;;;;;;;4.78;1.85;;;;;;;8.56;45.96;97193.84;5095230;28;20028;-62
2022/02/09 13:25:57;;;;;;;4.45;2.30;;;;;;;8.90;45.40;97196.63;5095532;28;20477;-62
2022/02/09 13:52:11;;;;;;;2.45;1.65;;;;;;;8.84;46.21;97205.44;5095371;28;20081;-62
2022/02/09 14:52:20;;;;;;;3.75;2.65;;;;;;;8.28;46.94;97212.53;5093837;28;20550;-62
2022/02/09 14:54:52;;;;;;;2.58;1.80;;;;;;;8.31;47.01;97214.25;5093757;28;20534;-62
2022/02/09 14:57:23;;;;;;;3.30;2.35;;;;;;;8.32;46.96;97215.97;5093659;28;20056;-62
2022/02/09 15:00:06;;;;;;;6.38;2.78;;;;;;;8.34;47.43;97217.66;5093569;28;20032;-62
2022/02/09 15:05:38;;;;;;;5.30;1.85;;;;;;;8.29;47.30;97222.09;5093692;28;20024;-62
2022/02/09 15:11:22;;;;;;;2.50;1.10;;;;;;;8.14;47.38;97217.16;5011698;28;20087;-62
2022/02/09 15:14:12;;;;;;;4.68;1.40;;;;;;;8.13;47.74;97220.66;5011626;28;20452;-62
2022/02/09 15:16:48;;;;;;;2.15;1.85;;;;;;;8.11;48.11;97215.47;5076183;28;20102;-62
2022/02/09 15:19:22;;;;;;;4.57;2.20;;;;;;;8.04;48.64;97219.91;5093184;28;20090;-62
2022/02/09 15:22:03;;;;;;;2.40;1.67;;;;;;;8.01;49.12;97219.97;5093037;28;20036;-63
2022/02/09 15:24:40;;;;;;;6.13;2.95;;;;;;;7.93;49.55;97222.72;5093361;28;20027;-63
2022/02/09 15:27:13;;;;;;;3.38;2.78;;;;;;;7.86;49.73;97215.91;5093298;28;20024;-62
2022/02/09 15:29:40;;;;;;;7.43;1.85;;;;;;;7.80;49.80;97216.81;5093340;28;20072;-62
2022/02/09 15:32:14;;;;;;;6.13;1.95;;;;;;;7.63;50.51;97218.84;5093385;28;20036;-62
2022/02/09 15:34:45;;;;;;;3.45;1.52;;;;;;;7.55;50.29;97218.94;5093167;28;20028;-62
2022/02/09 15:37:17;;;;;;;1.85;1.25;;;;;;;7.42;50.62;97226.09;5093222;28;20032;-62
2022/02/09 15:39:46;;;;;;;8.25;3.67;;;;;;;7.29;50.68;97215.84;5093179;28;20036;-62
2022/02/09 16:07:44;;;;;;;3.25;1.02;;;;;;;6.17;54.05;97249.19;5093183;28;20047;-62
2022/02/09 16:09:46;;;;;;;2.30;1.13;;;;;;;6.05;54.79;97254.50;5090704;28;20138;-62
2022/02/09 16:33:17;;;;;;;2.75;1.42;;;;;;;5.04;56.84;97276.72;5093290;28;20031;-62
2022/02/09 16:46:24;;;;;;;1.92;1.20;;;;;;;4.72;57.66;97294.09;5096592;28;20386;-62
2022/02/09 16:51:25;;;;;;;3.50;1.40;;;;;;;4.71;58.27;97296.69;5096268;28;20024;-62
2022/02/09 16:56:28;;;;;;;2.40;1.10;;;;;;;4.47;59.12;97304.53;5078718;28;20035;-62
2022/02/09 17:21:02;;;;;;;1.45;1.35;;;;;;;3.85;60.62;97318.31;5095661;28;20080;-62
2022/02/09 17:23:27;;;;;;;2.70;1.20;;;;;;;3.84;61.18;97321.78;5095622;28;20107;-62
2022/02/09 17:25:53;;;;;;;1.40;1.17;;;;;;;3.84;61.23;97320.91;5095503;28;20020;-62
2022/02/09 17:28:19;;;;;;;1.92;1.20;;;;;;;3.86;61.46;97324.38;5095375;28;20016;-62
2022/02/09 17:31:01;;;;;;;1.85;1.50;;;;;;;3.91;61.70;97327.81;5095412;28;20499;-62
2022/02/09 17:38:42;;;;;;;7.78;2.42;;;;;;;3.82;62.00;97343.38;5095149;28;20448;-62
2022/02/09 17:57:28;;;;;;;6.97;1.60;;;;;;;3.62;63.27;97358.00;5094976;28;20031;-62
2022/02/09 18:00:11;;;;;;;2.65;2.28;;;;;;;3.53;63.31;97360.53;5094741;28;20035;-62
2022/02/09 18:02:38;;;;;;;8.70;2.22;;;;;;;3.37;63.56;97357.88;5094925;28;20024;-62
2022/02/09 18:05:11;;;;;;;3.03;2.17;;;;;;;3.29;64.19;97363.03;5094740;28;20484;-62
2022/02/09 18:07:39;;;;;;;2.08;1.98;;;;;;;3.20;64.38;97357.84;5094838;28;20024;-62
2022/02/09 18:10:21;;;;;;;2.97;2.10;;;;;;;3.07;64.53;97358.63;5094611;28;20492;-62
2022/02/09 18:29:03;;;;;;;4.25;2.45;;;;;;;2.23;65.51;97361.50;5094385;28;20020;-62
2022/02/09 18:34:57;;;;;;;2.92;2.53;;;;;;;1.99;67.20;97373.34;5094381;28;20109;-62
2022/02/09 19:03:54;;;;;;;10.00;2.90;;;;;;;1.20;69.87;97404.28;5093723;28;20066;-62
2022/02/09 19:06:41;;;;;;;2.72;2.53;;;;;;;1.22;69.71;97394.84;5093645;28;20057;-62
2022/02/09 19:17:18;;;;;;;6.15;3.03;;;;;;;1.06;70.56;97397.25;5064522;28;20071;-62
2022/02/09 19:30:42;;;;;;;5.10;4.40;;;;;;;1.33;72.37;97410.47;5093370;28;20386;-62
2022/02/09 19:40:31;;;;;;;4.45;3.53;;;;;;;1.32;72.11;97416.47;5093388;28;20024;-62
2022/02/09 19:47:04;;;;;;;5.82;4.22;;;;;;;1.98;72.40;97425.81;5093261;28;20024;-62
2022/02/09 19:49:47;;;;;;;5.35;4.32;;;;;;;2.05;71.91;97426.75;5093146;28;20483;-62
2022/02/09 19:57:28;;;;;;;8.10;4.15;;;;;;;2.37;71.92;97432.22;5093047;28;20363;-62
2022/02/09 19:59:57;;;;;;;5.55;3.85;;;;;;;2.50;70.91;97438.34;5092992;28;20603;-62
2022/02/09 20:02:24;;;;;;;4.57;3.63;;;;;;;2.49;70.23;97431.47;5092865;28;20036;-62
2022/02/09 20:04:55;;;;;;;5.10;3.92;;;;;;;2.53;69.89;97442.69;5092950;28;20052;-62
2022/02/09 20:07:22;;;;;;;6.55;4.00;;;;;;;2.47;69.71;97438.31;5092997;28;20031;-62
2022/02/09 20:09:48;;;;;;;9.40;5.43;;;;;;;2.50;69.83;97448.69;5078068;28;20032;-62
2022/02/09 20:12:15;;;;;;;6.07;4.63;;;;;;;2.44;69.27;97440.03;5096939;28;20481;-62
2022/02/09 20:14:42;;;;;;;11.02;4.93;;;;;;;2.39;69.92;97448.59;5096973;28;20485;-62
2022/02/09 20:17:11;;;;;;;5.00;4.13;;;;;;;2.36;70.45;97448.56;5096827;28;20031;-62
2022/02/09 20:19:36;;;;;;;5.25;4.45;;;;;;;2.40;70.32;97460.66;5096348;28;20051;-62
2022/02/09 20:22:03;;;;;;;6.13;4.53;;;;;;;2.40;70.64;97458.09;5096639;28;20032;-62
2022/02/09 20:24:30;;;;;;;4.15;3.67;;;;;;;2.44;70.60;97456.38;5096558;28;20378;-62
2022/02/09 20:26:59;;;;;;;7.75;4.47;;;;;;;2.45;71.23;97457.25;5096600;28;20020;-62
2022/02/09 20:29:28;;;;;;;5.30;3.78;;;;;;;2.47;70.97;97456.41;5096688;28;20024;-62
2022/02/09 20:32:30;;;;;;;5.57;3.72;;;;;;;2.56;70.86;97457.34;5096625;28;20492;-62
2022/02/09 20:34:53;;;;;;;12.80;7.35;;;;;;;2.52;70.20;97457.31;5092413;28;20570;-62
2022/02/09 20:37:21;;;;;;;5.13;4.55;;;;;;;2.55;71.14;97458.19;5096441;28;20430;-62
2022/02/09 20:40:04;;;;;;;7.70;4.32;;;;;;;2.56;71.13;97459.94;5096315;28;20027;-62
2022/02/09 20:42:30;;;;;;;7.38;4.93;;;;;;;2.63;71.73;97452.25;5096317;28;20059;-62
2022/02/09 20:45:02;;;;;;;5.78;4.47;;;;;;;2.75;71.02;97460.94;5096370;28;20023;-62
2022/02/09 20:47:29;;;;;;;5.72;4.38;;;;;;;2.83;71.05;97459.28;5096432;28;20032;-62
2022/02/09 20:49:55;;;;;;;7.57;4.88;;;;;;;2.94;70.83;97453.31;5096256;28;20397;-62
2022/02/09 20:52:21;;;;;;;11.90;6.13;;;;;;;3.09;70.73;97455.16;5096072;28;20025;-62
2022/02/09 20:54:47;;;;;;;9.95;4.97;;;;;;;3.20;70.35;97447.47;5096052;28;20048;-61
2022/02/09 20:57:15;;;;;;;7.00;5.05;;;;;;;3.34;69.85;97452.72;5078027;28;20028;-62
2022/02/09 20:59:47;;;;;;;7.63;5.38;;;;;;;3.44;69.26;97440.69;5095917;28;20359;-62
2022/02/09 21:04:54;;;;;;;6.60;4.85;;;;;;;3.57;68.81;97442.50;5096039;28;20035;-62
2022/02/09 21:07:38;;;;;;;5.75;4.32;;;;;;;3.71;68.59;97446.84;5095842;28;20047;-62
2022/02/09 21:12:55;;;;;;;5.50;4.28;;;;;;;3.78;67.92;97449.47;5096283;28;20055;-62
2022/02/09 21:24:22;;;;;;;5.88;3.92;;;;;;;3.91;67.01;97454.69;5053333;28;20060;-62
2022/02/09 21:56:19;;;;;;;5.90;4.22;;;;;;;4.20;65.08;97455.63;5012971;28;20030;-62
2022/02/09 22:07:31;;;;;;;7.28;4.40;;;;;;;4.12;64.41;97463.41;5095091;28;20039;-62
2022/02/09 22:21:19;;;;;;;7.30;4.20;;;;;;;2.93;64.45;97482.63;5094630;28;20439;-62
2022/02/09 22:27:05;;;;;;;5.63;3.90;;;;;;;2.44;65.76;97471.03;5072891;28;20397;-62
2022/02/09 22:32:14;;;;;;;4.85;3.33;;;;;;;2.08;66.92;97468.94;5094273;28;20462;-62
2022/02/09 22:55:34;;;;;;;3.80;3.42;;;;;;;0.79;70.27;97462.09;5094201;28;20039;-62
2022/02/09 22:58:04;;;;;;;10.20;3.80;;;;;;;0.80;70.16;97453.53;5093805;28;20436;-62
2022/02/09 23:00:51;;;;;;;4.72;4.18;;;;;;;0.70;70.95;97455.09;5093715;28;20519;-62
2022/02/09 23:03:26;;;;;;;6.40;5.50;;;;;;;0.73;71.93;97450.84;5093763;28;20069;-62
2022/02/09 23:14:44;;;;;;;8.15;6.05;;;;;;;1.47;73.73;97449.31;5093755;28;20381;-62
